Time;durP1;ratioP1;P1;durP2;ratioP2;P2;SDS_P1;SDS_P2;PMS_P1;PMS_P2;Temp;Humidity;BMP_temperature;BMP_pressure;BME280_temperature;BME280_humidity;BME280_pressure;Samples;Min_cycle;Max_cycle;Signal;HPM_P1;HPM_P2
2021/12/28 00:01:05;;;;;;;91.35;48.23;;;;;;;-5.26;76.10;95783.91;1751019;80;20970;-80
2021/12/28 00:03:31;;;;;;;85.42;43.15;;;;;;;-5.24;76.22;95780.00;1749737;80;20999;-81
2021/12/28 00:05:58;;;;;;;83.40;41.80;;;;;;;-5.23;76.26;95776.56;1758401;80;21029;-81
2021/12/28 00:08:24;;;;;;;69.15;36.08;;;;;;;-5.19;76.61;95781.80;1754274;80;20971;-81
2021/12/28 00:10:50;;;;;;;69.32;36.80;;;;;;;-5.16;76.42;95776.07;1744979;80;21531;-80
2021/12/28 00:13:17;;;;;;;92.20;47.30;;;;;;;-5.15;76.40;95781.95;1749875;80;21046;-81
2021/12/28 00:18:20;;;;;;;134.07;67.27;;;;;;;-5.13;76.56;95778.86;1752111;79;21061;-81
2021/12/28 00:20:49;;;;;;;111.85;56.37;;;;;;;-5.09;76.60;95778.19;1748330;80;21106;-80
2021/12/28 00:23:18;;;;;;;124.72;64.53;;;;;;;-5.09;76.58;95773.94;1752018;80;21105;-81
2021/12/28 00:25:46;;;;;;;131.20;66.60;;;;;;;-5.06;76.40;95780.52;1764570;80;21273;-81
2021/12/28 00:28:12;;;;;;;128.10;66.82;;;;;;;-5.06;76.37;95765.31;1767687;80;21093;-81
2021/12/28 00:30:38;;;;;;;133.27;66.42;;;;;;;-5.05;76.46;95769.02;1743056;80;21022;-81
2021/12/28 00:33:05;;;;;;;141.60;69.05;;;;;;;-5.05;76.50;95763.14;1748981;80;21137;-81
2021/12/28 00:35:34;;;;;;;135.30;67.95;;;;;;;-5.04;76.74;95770.66;1738269;80;21038;-81
2021/12/28 00:38:01;;;;;;;130.93;66.90;;;;;;;-4.99;76.71;95768.63;1744991;80;21030;-81
2021/12/28 00:40:27;;;;;;;134.45;67.22;;;;;;;-4.96;76.63;95776.02;1762907;80;21016;-81
2021/12/28 00:42:53;;;;;;;135.28;68.87;;;;;;;-4.99;76.53;95771.16;1750220;80;22579;-81
2021/12/28 00:45:19;;;;;;;130.50;68.12;;;;;;;-5.00;76.57;95763.66;1763649;80;21030;-81
2021/12/28 00:47:45;;;;;;;134.78;66.85;;;;;;;-5.01;76.64;95767.92;1760993;80;21006;-81
2021/12/28 00:50:13;;;;;;;121.53;64.07;;;;;;;-4.97;76.74;95762.19;1746407;80;21095;-81
2021/12/28 00:52:39;;;;;;;124.82;64.42;;;;;;;-5.00;76.60;95763.20;1737429;80;21102;-81
2021/12/28 00:55:06;;;;;;;122.58;61.58;;;;;;;-5.01;76.69;95768.38;1725872;82;21493;-81
2021/12/28 00:57:32;;;;;;;125.90;64.60;;;;;;;-5.01;76.74;95768.38;1750756;80;21010;-82
2021/12/28 00:59:58;;;;;;;129.82;67.32;;;;;;;-5.00;76.73;95773.34;1772651;80;21118;-82
2021/12/28 01:02:24;;;;;;;117.20;62.98;;;;;;;-4.99;76.57;95777.49;1751925;80;21004;-82
2021/12/28 01:04:49;;;;;;;120.70;61.15;;;;;;;-5.02;76.51;95778.16;1740040;81;20991;-82
2021/12/28 01:07:15;;;;;;;101.82;57.78;;;;;;;-4.99;76.58;95769.89;1769693;80;21209;-81
2021/12/28 01:09:42;;;;;;;115.90;59.23;;;;;;;-4.98;76.59;95769.44;1758683;79;22106;-82
2021/12/28 01:12:10;;;;;;;111.50;56.68;;;;;;;-4.95;76.62;95767.50;1766010;80;21099;-82
2021/12/28 01:14:37;;;;;;;110.30;58.38;;;;;;;-4.93;76.58;95765.67;1753991;79;21022;-81
2021/12/28 01:17:04;;;;;;;118.72;59.70;;;;;;;-4.94;76.32;95773.38;1774282;80;21079;-82
2021/12/28 01:19:30;;;;;;;117.72;60.12;;;;;;;-4.96;76.31;95777.28;1765002;80;20998;-82
2021/12/28 01:21:56;;;;;;;116.88;60.40;;;;;;;-4.95;76.28;95773.03;1730242;80;20965;-83
2021/12/28 01:24:22;;;;;;;122.05;61.92;;;;;;;-4.96;76.22;95772.67;1757322;80;20967;-82
2021/12/28 01:26:49;;;;;;;118.05;60.78;;;;;;;-5.00;76.22;95769.54;1760525;80;21027;-82
2021/12/28 01:29:14;;;;;;;112.45;60.20;;;;;;;-4.99;76.28;95764.83;1754230;80;21510;-82
2021/12/28 01:31:40;;;;;;;112.70;58.58;;;;;;;-4.99;76.26;95753.88;1751579;79;21016;-81
2021/12/28 01:34:07;;;;;;;125.22;60.40;;;;;;;-5.01;76.31;95750.19;1765389;80;21097;-82
2021/12/28 01:36:33;;;;;;;104.50;57.33;;;;;;;-5.02;76.39;95747.30;1764302;80;21457;-82
2021/12/28 01:38:59;;;;;;;105.27;55.10;;;;;;;-5.00;76.46;95749.27;1760367;80;21016;-82
2021/12/28 01:41:25;;;;;;;115.08;56.77;;;;;;;-4.98;76.53;95747.90;1747058;80;20998;-82
2021/12/28 01:43:56;;;;;;;102.20;53.68;;;;;;;-4.98;76.51;95738.58;1706814;83;21594;-82
2021/12/28 01:46:22;;;;;;;104.40;54.15;;;;;;;-4.97;76.62;95735.58;1687714;83;21103;-82
2021/12/28 01:48:48;;;;;;;103.58;49.35;;;;;;;-4.97;76.71;95729.25;1711506;81;21026;-82
2021/12/28 01:51:17;;;;;;;98.33;47.80;;;;;;;-5.00;76.61;95725.20;1711735;81;21162;-82
2021/12/28 01:53:44;;;;;;;107.83;54.00;;;;;;;-5.04;76.82;95719.19;1724160;81;21051;-81
2021/12/28 01:56:22;;;;;;;84.92;44.33;;;;;;;-5.04;76.97;95728.86;1696852;83;21154;-82
2021/12/28 01:58:49;;;;;;;89.28;43.78;;;;;;;-5.04;76.89;95724.25;1696350;83;21094;-82
2021/12/28 02:01:15;;;;;;;88.87;46.15;;;;;;;-5.03;77.09;95725.41;1700772;82;21113;-82
2021/12/28 02:03:41;;;;;;;86.02;44.98;;;;;;;-5.01;77.16;95725.31;1693585;82;21423;-82
2021/12/28 02:06:07;;;;;;;83.67;43.87;;;;;;;-4.97;77.17;95724.98;1689394;82;21071;-81
2021/12/28 02:08:34;;;;;;;66.55;35.08;;;;;;;-4.96;77.14;95728.33;1697145;83;21031;-82
2021/12/28 02:10:59;;;;;;;55.45;29.95;;;;;;;-4.97;77.22;95726.26;1702472;83;20996;-82
2021/12/28 02:13:26;;;;;;;44.80;25.55;;;;;;;-4.97;77.35;95726.26;1699752;83;21058;-82
2021/12/28 02:15:52;;;;;;;53.90;31.10;;;;;;;-4.96;77.65;95725.34;1700100;83;21405;-82
2021/12/28 02:18:20;;;;;;;73.65;39.92;;;;;;;-4.89;77.86;95728.27;1702263;83;21030;-82
2021/12/28 02:20:47;;;;;;;74.90;39.08;;;;;;;-4.86;77.87;95723.01;1711411;82;21008;-82
2021/12/28 02:23:13;;;;;;;54.08;31.82;;;;;;;-4.86;77.85;95715.41;1695613;83;21348;-82
2021/12/28 02:25:39;;;;;;;63.92;35.25;;;;;;;-4.84;77.98;95718.64;1701224;82;21082;-81
2021/12/28 02:28:06;;;;;;;66.95;35.95;;;;;;;-4.79;78.13;95724.66;1690448;83;21487;-82
2021/12/28 02:30:32;;;;;;;52.88;29.20;;;;;;;-4.72;78.12;95724.58;1680444;83;21077;-82
2021/12/28 02:32:57;;;;;;;57.65;29.95;;;;;;;-4.68;78.12;95720.95;1690251;83;21035;-82
2021/12/28 02:35:25;;;;;;;46.53;28.20;;;;;;;-4.65;78.26;95714.39;1703341;83;21078;-82
2021/12/28 02:37:51;;;;;;;54.18;31.33;;;;;;;-4.65;78.33;95718.20;1758099;80;21066;-82
2021/12/28 02:40:20;;;;;;;55.83;31.27;;;;;;;-4.62;78.31;95721.78;1759271;80;21440;-82
2021/12/28 02:42:46;;;;;;;48.28;26.45;;;;;;;-4.57;78.30;95714.20;1765324;80;21084;-82
2021/12/28 02:45:21;;;;;;;41.95;23.22;;;;;;;-4.50;78.39;95715.88;1762856;80;21074;-82
2021/12/28 02:47:46;;;;;;;51.98;28.80;;;;;;;-4.47;78.18;95719.46;1755195;80;21061;-82
2021/12/28 02:50:19;;;;;;;65.42;30.40;;;;;;;-4.44;78.15;95715.90;1764339;80;21047;-82
2021/12/28 02:52:45;;;;;;;64.10;31.85;;;;;;;-4.42;78.22;95708.53;1753930;80;21463;-82
2021/12/28 02:55:12;;;;;;;54.77;31.73;;;;;;;-4.38;78.19;95704.08;1759749;80;21136;-82
2021/12/28 02:57:47;;;;;;;53.65;26.87;;;;;;;-4.40;78.15;95700.81;1763381;80;21047;-82
2021/12/28 03:00:14;;;;;;;58.87;31.25;;;;;;;-4.38;78.24;95701.55;1712482;81;20989;-82
2021/12/28 03:02:40;;;;;;;56.40;30.25;;;;;;;-4.35;78.15;95700.06;1699993;83;21063;-82
2021/12/28 03:05:06;;;;;;;62.88;31.80;;;;;;;-4.37;78.14;95698.90;1711695;81;20996;-82
2021/12/28 03:07:32;;;;;;;68.40;36.10;;;;;;;-4.36;78.25;95700.52;1718230;81;21062;-82
2021/12/28 03:09:58;;;;;;;52.60;30.00;;;;;;;-4.37;78.22;95695.55;1708895;81;21012;-82
2021/12/28 03:12:24;;;;;;;48.00;25.77;;;;;;;-4.39;78.29;95693.13;1722023;81;21046;-82
2021/12/28 03:14:51;;;;;;;63.48;34.00;;;;;;;-4.38;78.39;95696.47;1702983;83;21363;-82
2021/12/28 03:17:16;;;;;;;63.23;33.25;;;;;;;-4.36;78.34;95689.56;1706239;83;21031;-82
2021/12/28 03:19:43;;;;;;;61.53;32.60;;;;;;;-4.40;78.38;95688.14;1695381;82;21414;-82
2021/12/28 03:22:08;;;;;;;52.23;31.05;;;;;;;-4.40;78.48;95688.14;1695047;82;20995;-82
2021/12/28 03:24:34;;;;;;;41.23;25.40;;;;;;;-4.41;78.57;95687.33;1726857;81;21022;-82
2021/12/28 03:27:00;;;;;;;23.83;13.95;;;;;;;-4.37;78.58;95680.34;1721615;81;21034;-82
2021/12/28 03:29:26;;;;;;;19.95;11.60;;;;;;;-4.38;78.48;95685.06;1695008;83;21496;-82
2021/12/28 03:31:52;;;;;;;24.30;14.78;;;;;;;-4.37;78.50;95685.41;1709198;82;21414;-83
2021/12/28 03:34:18;;;;;;;29.48;18.50;;;;;;;-4.36;78.74;95681.95;1703944;83;21070;-83
2021/12/28 03:36:44;;;;;;;61.63;32.08;;;;;;;-4.32;78.60;95685.42;1705416;82;21146;-84
2021/12/28 03:39:09;;;;;;;73.10;37.95;;;;;;;-4.31;78.31;95697.19;1706931;82;21143;-83
2021/12/28 03:41:36;;;;;;;132.45;62.78;;;;;;;-4.29;78.17;95692.81;1703857;82;21096;-83
2021/12/28 03:44:02;;;;;;;120.57;58.23;;;;;;;-4.27;77.92;95700.31;1707657;83;21062;-83
2021/12/28 03:46:28;;;;;;;110.22;55.50;;;;;;;-4.24;77.80;95692.48;1706131;83;21029;-84
2021/12/28 03:48:54;;;;;;;115.28;58.80;;;;;;;-4.29;77.67;95692.81;1703895;83;21039;-83
2021/12/28 03:51:20;;;;;;;110.83;57.98;;;;;;;-4.35;77.53;95690.72;1708818;83;21085;-84
2021/12/28 03:53:46;;;;;;;110.65;55.75;;;;;;;-4.36;77.59;95695.91;1707953;83;21120;-84
2021/12/28 03:56:12;;;;;;;113.03;57.13;;;;;;;-4.35;77.61;95697.06;1699576;83;21062;-83
2021/12/28 03:58:39;;;;;;;111.88;55.80;;;;;;;-4.34;77.56;95698.68;1698635;83;21004;-83
2021/12/28 04:01:05;;;;;;;109.97;58.35;;;;;;;-4.34;77.44;95701.67;1710724;83;21067;-83
2021/12/28 04:03:31;;;;;;;116.25;60.10;;;;;;;-4.36;77.39;95699.25;1702784;83;21007;-83
2021/12/28 04:05:59;;;;;;;110.05;55.05;;;;;;;-4.36;77.35;95706.05;1703996;83;21050;-83
2021/12/28 04:08:27;;;;;;;110.35;58.52;;;;;;;-4.37;77.24;95701.89;1707728;82;21036;-83
2021/12/28 04:10:55;;;;;;;118.15;56.90;;;;;;;-4.39;77.16;95698.66;1696775;83;21029;-83
2021/12/28 04:13:21;;;;;;;117.42;60.67;;;;;;;-4.44;77.07;95697.69;1701132;83;21060;-83
2021/12/28 04:15:47;;;;;;;109.83;56.95;;;;;;;-4.49;77.07;95702.28;1699393;83;21422;-84
2021/12/28 04:18:15;;;;;;;110.03;59.73;;;;;;;-4.50;77.18;95699.39;1710091;83;21072;-83
2021/12/28 04:20:40;;;;;;;110.40;58.68;;;;;;;-4.50;77.11;95697.32;1702605;82;21055;-83
2021/12/28 04:23:06;;;;;;;113.50;56.13;;;;;;;-4.52;76.93;95699.16;1712271;83;21128;-83
2021/12/28 04:25:33;;;;;;;111.47;59.58;;;;;;;-4.55;76.81;95704.80;1713868;83;21020;-84
2021/12/28 04:27:59;;;;;;;105.97;57.53;;;;;;;-4.61;76.69;95705.66;1710151;83;21038;-84
2021/12/28 04:30:25;;;;;;;108.32;58.00;;;;;;;-4.63;76.86;95706.22;1708654;82;21064;-84
2021/12/28 04:32:50;;;;;;;111.80;58.92;;;;;;;-4.62;76.92;95711.19;1709163;83;21143;-83
2021/12/28 04:35:16;;;;;;;120.55;60.05;;;;;;;-4.63;76.69;95711.30;1709671;82;21038;-83
2021/12/28 04:37:43;;;;;;;110.30;57.20;;;;;;;-4.69;76.49;95703.66;1693810;83;21577;-80
2021/12/28 04:40:10;;;;;;;115.05;59.00;;;;;;;-4.75;76.45;95698.99;1711094;82;21007;-80
2021/12/28 04:42:36;;;;;;;125.92;63.80;;;;;;;-4.77;76.58;95698.30;1766129;80;21039;-80
2021/12/28 04:45:03;;;;;;;122.98;61.33;;;;;;;-4.78;76.68;95695.86;1758559;80;21283;-80
2021/12/28 04:47:29;;;;;;;114.97;61.30;;;;;;;-4.81;76.72;95693.09;1758545;80;21016;-80
2021/12/28 04:49:55;;;;;;;119.65;62.88;;;;;;;-4.83;76.70;95693.66;1775920;80;21022;-80
2021/12/28 04:52:21;;;;;;;115.80;64.53;;;;;;;-4.83;76.79;95692.39;1760182;79;21394;-80
2021/12/28 04:54:46;;;;;;;112.15;58.35;;;;;;;-4.81;76.74;95697.34;1764200;80;21133;-80
2021/12/28 04:57:12;;;;;;;112.05;56.92;;;;;;;-4.81;76.48;95699.88;1760058;80;21019;-80
2021/12/28 04:59:38;;;;;;;98.58;52.53;;;;;;;-4.90;76.31;95704.64;1762654;80;21007;-80
2021/12/28 05:02:04;;;;;;;95.12;53.58;;;;;;;-4.95;76.52;95707.15;1763160;80;21057;-80
2021/12/28 05:04:30;;;;;;;104.95;53.15;;;;;;;-4.96;76.71;95694.13;1762556;79;21107;-80
2021/12/28 05:06:56;;;;;;;104.20;52.70;;;;;;;-4.98;76.88;95697.23;1762868;80;20981;-79
2021/12/28 05:09:22;;;;;;;63.55;35.28;;;;;;;-4.95;76.98;95698.28;1767546;80;21066;-80
2021/12/28 05:11:48;;;;;;;64.82;36.77;;;;;;;-4.96;77.25;95704.27;1768840;80;21026;-80
2021/12/28 05:14:16;;;;;;;46.00;26.48;;;;;;;-4.95;77.10;95701.63;1763893;80;21018;-80
2021/12/28 05:16:42;;;;;;;46.68;25.52;;;;;;;-4.96;77.19;95696.20;1754923;80;21411;-80
2021/12/28 05:19:08;;;;;;;37.00;22.40;;;;;;;-4.99;77.51;95692.62;1763891;80;21378;-80
2021/12/28 05:21:35;;;;;;;29.90;16.73;;;;;;;-5.01;77.85;95684.77;1762929;80;21038;-80
2021/12/28 05:24:01;;;;;;;30.72;17.12;;;;;;;-4.98;78.18;95686.64;1767022;80;20983;-80
2021/12/28 05:26:27;;;;;;;40.23;22.70;;;;;;;-4.94;78.49;95689.30;1764558;80;21420;-80
2021/12/28 05:28:52;;;;;;;58.08;31.17;;;;;;;-4.90;78.62;95690.70;1763295;80;21034;-80
2021/12/28 05:31:18;;;;;;;60.17;34.15;;;;;;;-4.86;78.76;95688.80;1760699;80;21507;-80
2021/12/28 05:33:45;;;;;;;48.65;27.65;;;;;;;-4.85;78.84;95686.16;1738928;79;21055;-80
2021/12/28 05:36:11;;;;;;;31.90;17.90;;;;;;;-4.85;78.82;95683.62;1770637;80;21010;-80
2021/12/28 05:38:37;;;;;;;37.73;21.75;;;;;;;-4.78;79.02;95683.19;1760830;80;20982;-80
2021/12/28 05:41:04;;;;;;;26.00;14.63;;;;;;;-4.72;79.05;95690.36;1758833;79;20995;-80
2021/12/28 05:43:30;;;;;;;19.27;12.35;;;;;;;-4.69;79.13;95696.52;1773248;80;20995;-80
2021/12/28 05:45:56;;;;;;;20.17;11.95;;;;;;;-4.65;79.22;95689.85;1766362;80;21017;-80
2021/12/28 05:48:21;;;;;;;38.38;21.97;;;;;;;-4.63;79.22;95684.67;1732734;80;21026;-80
2021/12/28 05:50:47;;;;;;;47.43;25.97;;;;;;;-4.63;79.40;95682.14;1755136;80;21409;-80
2021/12/28 05:53:13;;;;;;;52.60;29.10;;;;;;;-4.59;79.56;95681.00;1759830;80;20970;-80
2021/12/28 05:55:39;;;;;;;29.10;17.55;;;;;;;-4.53;79.56;95686.94;1772453;80;21044;-80
2021/12/28 05:58:04;;;;;;;30.90;17.02;;;;;;;-4.48;79.47;95682.34;1756476;80;21126;-80
2021/12/28 06:00:30;;;;;;;46.08;25.32;;;;;;;-4.51;79.43;95680.03;1766188;80;21803;-80
2021/12/28 06:02:56;;;;;;;18.77;12.15;;;;;;;-4.49;79.65;95674.84;1759480;80;20986;-80
2021/12/28 06:05:23;;;;;;;15.10;9.78;;;;;;;-4.46;79.76;95680.51;1764461;80;21508;-79
2021/12/28 06:07:49;;;;;;;21.57;13.20;;;;;;;-4.46;79.85;95667.83;1753395;80;21377;-80
2021/12/28 06:10:15;;;;;;;37.17;19.57;;;;;;;-4.46;80.10;95660.22;1765613;80;21453;-80
2021/12/28 06:12:41;;;;;;;23.55;13.35;;;;;;;-4.45;80.22;95659.30;1725792;80;21010;-80
2021/12/28 06:15:07;;;;;;;36.40;20.65;;;;;;;-4.44;80.24;95661.38;1754936;80;20963;-80
2021/12/28 06:17:34;;;;;;;44.88;23.57;;;;;;;-4.40;80.34;95667.39;1754031;80;21035;-80
2021/12/28 06:19:59;;;;;;;54.35;30.68;;;;;;;-4.33;80.34;95666.05;1759911;80;20957;-80
2021/12/28 06:22:25;;;;;;;49.98;30.02;;;;;;;-4.25;80.69;95671.37;1748189;80;21023;-80
2021/12/28 06:24:51;;;;;;;101.05;39.08;;;;;;;-4.16;80.46;95673.73;1755539;80;21025;-80
2021/12/28 06:27:18;;;;;;;193.20;62.95;;;;;;;-4.12;80.12;95684.02;1759140;80;21908;-80
2021/12/28 06:29:44;;;;;;;55.80;30.92;;;;;;;-4.15;79.79;95685.50;1759404;80;21030;-80
2021/12/28 06:32:11;;;;;;;38.92;24.32;;;;;;;-4.16;79.83;95680.54;1764875;80;21078;-80
2021/12/28 06:34:37;;;;;;;37.25;21.85;;;;;;;-4.14;79.92;95678.70;1757517;80;21424;-80
2021/12/28 06:37:03;;;;;;;41.15;26.35;;;;;;;-4.08;79.97;95682.05;1768502;80;21075;-80
2021/12/28 06:39:29;;;;;;;31.50;18.75;;;;;;;-4.06;79.81;95680.25;1757298;80;21027;-80
2021/12/28 06:41:55;;;;;;;30.48;18.82;;;;;;;-4.06;79.75;95686.13;1771009;80;21320;-80
2021/12/28 06:44:21;;;;;;;50.50;28.42;;;;;;;-4.05;79.74;95690.74;1763245;80;20999;-80
2021/12/28 06:46:47;;;;;;;56.45;30.75;;;;;;;-4.01;80.08;95699.29;1759257;80;21189;-80
2021/12/28 06:49:14;;;;;;;288.75;98.15;;;;;;;-3.95;79.90;95703.11;1762600;80;21080;-80
2021/12/28 06:51:39;;;;;;;189.80;72.30;;;;;;;-3.95;79.52;95700.57;1767189;80;21058;-80
2021/12/28 06:54:05;;;;;;;123.38;58.75;;;;;;;-3.96;79.33;95701.03;1767360;80;21052;-80
2021/12/28 06:56:32;;;;;;;121.20;57.43;;;;;;;-3.95;79.24;95701.84;1755417;80;21039;-80
2021/12/28 06:58:58;;;;;;;71.25;37.95;;;;;;;-3.97;79.17;95698.61;1765179;80;21041;-80
2021/12/28 07:01:24;;;;;;;72.87;36.58;;;;;;;-4.04;79.08;95691.91;1763208;80;20992;-80
2021/12/28 07:03:50;;;;;;;50.28;28.05;;;;;;;-4.12;79.12;95690.35;1770235;80;21011;-79
2021/12/28 07:06:16;;;;;;;41.83;23.50;;;;;;;-4.15;79.30;95692.30;1753194;80;21441;-80
2021/12/28 07:08:42;;;;;;;27.85;16.73;;;;;;;-4.14;79.54;95696.46;1745156;80;21082;-80
2021/12/28 07:11:08;;;;;;;22.40;14.55;;;;;;;-4.11;79.71;95692.43;1762680;80;21006;-80
2021/12/28 07:13:34;;;;;;;15.68;11.73;;;;;;;-4.07;80.04;95696.36;1768551;80;21027;-80
2021/12/28 07:16:00;;;;;;;108.15;35.55;;;;;;;-4.01;80.29;95699.29;1757607;80;21370;-80
2021/12/28 07:18:25;;;;;;;166.28;49.53;;;;;;;-3.91;80.21;95708.30;1760765;80;21012;-80
2021/12/28 07:20:51;;;;;;;37.08;11.83;;;;;;;-3.82;80.10;95705.58;1754197;80;21023;-80
2021/12/28 07:23:17;;;;;;;3.62;3.33;;;;;;;-3.78;80.06;95701.44;1775977;80;21358;-80
2021/12/28 07:25:43;;;;;;;4.47;3.40;;;;;;;-3.77;80.24;95701.78;1764055;80;20972;-80
2021/12/28 07:28:09;;;;;;;3.35;3.15;;;;;;;-3.76;80.38;95693.70;1757698;80;21082;-80
2021/12/28 07:30:35;;;;;;;5.72;4.15;;;;;;;-3.75;80.33;95695.32;1756238;80;21066;-80
2021/12/28 07:33:01;;;;;;;41.18;14.43;;;;;;;-3.73;80.47;95694.31;1759322;80;21178;-80
2021/12/28 07:35:27;;;;;;;127.85;40.23;;;;;;;-3.66;80.37;95687.86;1766418;80;21529;-80
2021/12/28 07:37:53;;;;;;;171.00;55.63;;;;;;;-3.66;80.25;95690.40;1755653;80;21105;-79
2021/12/28 07:40:19;;;;;;;120.45;51.23;;;;;;;-3.64;80.07;95698.71;1757288;80;21063;-80
2021/12/28 07:42:45;;;;;;;289.20;112.92;;;;;;;-3.60;79.80;95692.13;1746204;80;21113;-80
2021/12/28 07:45:12;;;;;;;100.50;54.90;;;;;;;-3.60;79.64;95689.59;1753588;80;21138;-80
2021/12/28 07:47:38;;;;;;;40.65;22.17;;;;;;;-3.53;79.79;95695.86;1757151;80;21090;-80
2021/12/28 07:50:06;;;;;;;32.10;19.50;;;;;;;-3.51;79.84;95694.02;1753520;80;22508;-80
2021/12/28 07:52:32;;;;;;;12.30;7.47;;;;;;;-3.45;80.24;95693.55;1762672;80;21016;-82
2021/12/28 07:54:58;;;;;;;9.60;7.33;;;;;;;-3.39;80.41;95689.31;1756994;80;21047;-80
2021/12/28 07:57:23;;;;;;;8.58;6.60;;;;;;;-3.36;80.38;95687.34;1753755;80;21326;-80
2021/12/28 07:59:49;;;;;;;4.80;4.30;;;;;;;-3.32;80.54;95684.91;1739265;81;21003;-80
2021/12/28 08:02:14;;;;;;;8.80;6.35;;;;;;;-3.27;80.69;95687.11;1724688;82;21464;-80
2021/12/28 08:04:40;;;;;;;7.25;5.90;;;;;;;-3.18;80.95;95686.44;1703049;82;20984;-81
2021/12/28 08:07:06;;;;;;;8.28;6.90;;;;;;;-3.13;81.03;95689.43;1689100;83;21040;-80
2021/12/28 08:09:32;;;;;;;5.28;4.70;;;;;;;-3.03;81.22;95685.75;1727967;81;21013;-81
2021/12/28 08:11:58;;;;;;;4.15;3.10;;;;;;;-2.98;80.97;95682.39;1732300;81;21547;-81
2021/12/28 08:14:24;;;;;;;2.70;2.50;;;;;;;-2.95;80.69;95682.16;1681028;82;21065;-81
2021/12/28 08:16:49;;;;;;;2.52;2.42;;;;;;;-2.92;80.90;95687.48;1726176;82;21039;-81
2021/12/28 08:19:15;;;;;;;96.47;33.60;;;;;;;-2.90;80.79;95697.08;1710732;82;21079;-81
2021/12/28 08:21:41;;;;;;;265.40;85.25;;;;;;;-2.86;80.57;95699.73;1723923;81;21055;-81
2021/12/28 08:24:07;;;;;;;229.70;78.90;;;;;;;-2.84;80.26;95699.14;1681733;82;20972;-81
2021/12/28 08:26:33;;;;;;;280.00;125.50;;;;;;;-2.83;80.03;95699.48;1740114;81;21013;-81
2021/12/28 08:28:58;;;;;;;165.43;69.55;;;;;;;-2.80;79.92;95699.25;1754299;80;21121;-81
2021/12/28 08:31:24;;;;;;;108.95;51.83;;;;;;;-2.80;79.79;95692.43;1738357;80;20999;-81
2021/12/28 08:33:50;;;;;;;74.82;31.95;;;;;;;-2.87;79.54;95684.12;1768753;80;21083;-81
2021/12/28 08:36:16;;;;;;;88.50;39.03;;;;;;;-2.97;79.57;95676.84;1766767;80;21048;-81
2021/12/28 08:38:43;;;;;;;92.02;44.35;;;;;;;-2.97;79.91;95681.46;1755530;80;20970;-81
2021/12/28 08:41:10;;;;;;;198.78;101.67;;;;;;;-2.94;79.95;95679.14;1754779;80;21031;-81
2021/12/28 08:43:37;;;;;;;211.97;106.22;;;;;;;-2.90;79.80;95676.74;1757432;80;21396;-80
2021/12/28 08:46:03;;;;;;;148.45;73.30;;;;;;;-2.90;79.83;95678.02;1762036;80;21062;-80
2021/12/28 08:48:29;;;;;;;165.25;78.62;;;;;;;-2.86;80.06;95673.84;1754298;80;21026;-80
2021/12/28 08:50:54;;;;;;;152.02;73.17;;;;;;;-2.83;79.93;95668.52;1754757;80;21446;-80
2021/12/28 08:53:20;;;;;;;76.33;40.33;;;;;;;-2.82;79.76;95659.96;1756807;80;21037;-81
2021/12/28 08:55:47;;;;;;;39.85;24.10;;;;;;;-2.84;79.78;95649.11;1754192;80;21495;-80
2021/12/28 08:58:14;;;;;;;9.03;5.90;;;;;;;-2.86;79.83;95642.52;1770719;80;20996;-81
2021/12/28 09:00:40;;;;;;;18.60;10.53;;;;;;;-2.81;80.37;95640.43;1753506;80;21369;-81
2021/12/28 09:03:06;;;;;;;190.30;73.15;;;;;;;-2.74;80.74;95639.05;1747149;80;20999;-80
2021/12/28 09:05:32;;;;;;;202.55;83.78;;;;;;;-2.69;80.43;95640.77;1754001;80;20992;-81
2021/12/28 09:07:58;;;;;;;232.60;102.70;;;;;;;-2.63;80.32;95637.73;1764017;80;21430;-80
2021/12/28 09:10:27;;;;;;;251.75;111.45;;;;;;;-2.60;80.17;95641.34;1753030;80;21465;-81
2021/12/28 09:12:54;;;;;;;266.70;120.80;;;;;;;-2.57;80.03;95633.46;1747011;80;21031;-81
2021/12/28 09:15:20;;;;;;;229.20;107.27;;;;;;;-2.57;79.78;95652.53;1751777;80;20983;-80
2021/12/28 09:17:46;;;;;;;224.15;109.42;;;;;;;-2.55;79.75;95650.67;1743911;80;20962;-80
2021/12/28 09:20:16;;;;;;;177.78;95.00;;;;;;;-2.50;79.61;95657.94;1763452;80;21572;-81
2021/12/28 09:22:42;;;;;;;200.72;108.20;;;;;;;-2.47;79.52;95655.96;1757300;80;20996;-81
2021/12/28 09:25:09;;;;;;;193.22;109.42;;;;;;;-2.46;79.23;95652.48;1748330;80;21011;-81
2021/12/28 09:27:35;;;;;;;188.72;103.72;;;;;;;-2.45;79.13;95654.10;1753176;80;21078;-81
2021/12/28 09:30:01;;;;;;;192.18;105.55;;;;;;;-2.39;79.28;95650.29;1777694;80;21407;-81
2021/12/28 09:32:27;;;;;;;186.25;103.90;;;;;;;-2.32;79.23;95644.24;1768689;80;21004;-80
2021/12/28 09:34:54;;;;;;;183.93;96.75;;;;;;;-2.23;79.24;95637.17;1746320;80;20988;-81
2021/12/28 09:37:19;;;;;;;171.53;97.27;;;;;;;-2.25;78.85;95627.58;1755923;80;21095;-81
2021/12/28 09:39:46;;;;;;;172.53;98.72;;;;;;;-2.25;78.93;95628.39;1751316;80;21035;-81
2021/12/28 09:42:12;;;;;;;175.97;95.47;;;;;;;-2.21;78.93;95624.66;1749597;80;21078;-81
2021/12/28 09:44:38;;;;;;;170.12;96.15;;;;;;;-2.21;78.92;95617.02;1766793;80;21008;-81
2021/12/28 09:47:04;;;;;;;189.05;100.45;;;;;;;-2.16;78.97;95623.02;1751627;80;20967;-81
2021/12/28 09:49:30;;;;;;;175.70;98.52;;;;;;;-2.12;79.15;95625.21;1756362;80;21106;-80
2021/12/28 09:51:57;;;;;;;171.05;99.40;;;;;;;-2.04;79.10;95620.77;1747492;80;21059;-80
2021/12/28 09:54:25;;;;;;;172.95;97.30;;;;;;;-2.00;79.19;95616.23;1767046;80;20992;-80
2021/12/28 09:56:51;;;;;;;213.50;116.17;;;;;;;-1.92;79.20;95621.06;1764180;80;21027;-80
2021/12/28 09:59:16;;;;;;;204.95;112.72;;;;;;;-1.84;79.06;95613.59;1768638;80;21062;-80
2021/12/28 10:01:42;;;;;;;175.42;104.45;;;;;;;-1.77;78.89;95615.66;1770747;80;21469;-80
2021/12/28 10:04:08;;;;;;;182.37;104.47;;;;;;;-1.72;79.06;95607.98;1753727;80;20981;-80
2021/12/28 10:06:33;;;;;;;169.30;98.62;;;;;;;-1.62;79.07;95592.77;1764684;80;20988;-80
2021/12/28 10:09:16;;;;;;;177.38;99.05;;;;;;;-1.53;79.10;95580.05;1765631;80;20983;-80
2021/12/28 10:11:48;;;;;;;174.95;100.65;;;;;;;-1.43;79.09;95567.84;1763964;80;21070;-80
2021/12/28 10:14:29;;;;;;;214.08;131.80;;;;;;;-1.39;79.05;95566.17;1755340;80;21023;-80
2021/12/28 10:17:02;;;;;;;212.60;127.45;;;;;;;-1.32;79.01;95560.08;1765553;80;21026;-80
2021/12/28 10:19:45;;;;;;;239.63;142.62;;;;;;;-1.26;79.05;95555.29;1767500;80;21022;-80
2021/12/28 10:22:31;;;;;;;239.50;144.57;;;;;;;-1.29;78.37;95553.48;1762477;80;21370;-80
2021/12/28 10:25:20;;;;;;;225.25;129.75;;;;;;;-1.23;78.46;95557.58;1770609;80;21004;-80
2021/12/28 10:27:49;;;;;;;264.50;151.18;;;;;;;-1.14;78.29;95562.81;1772612;80;21150;-80
2021/12/28 10:30:22;;;;;;;255.80;141.80;;;;;;;-1.08;78.20;95555.95;1757751;80;21083;-80
2021/12/28 10:32:52;;;;;;;239.60;139.70;;;;;;;-0.99;78.38;95539.84;1771829;80;21017;-80
2021/12/28 10:35:25;;;;;;;239.40;140.60;;;;;;;-0.91;78.10;95538.73;1735178;82;21050;-80
2021/12/28 10:37:58;;;;;;;271.85;155.40;;;;;;;-0.83;78.09;95538.06;1716640;82;21094;-80
2021/12/28 10:40:28;;;;;;;276.58;156.37;;;;;;;-0.88;77.80;95536.38;1730131;82;21011;-80
2021/12/28 10:42:59;;;;;;;280.42;158.05;;;;;;;-0.82;77.88;95537.92;1683309;83;21454;-80
2021/12/28 10:45:41;;;;;;;268.30;154.53;;;;;;;-0.72;78.04;95550.23;1707054;83;21395;-80
2021/12/28 10:48:20;;;;;;;207.60;123.80;;;;;;;-0.62;77.74;95538.30;1703228;83;21074;-80
2021/12/28 10:51:04;;;;;;;214.88;127.50;;;;;;;-0.55;77.62;95542.39;1697621;83;21040;-80
2021/12/28 10:56:25;;;;;;;257.48;146.95;;;;;;;-0.60;77.14;95538.16;1698925;83;21161;-80
2021/12/28 10:58:52;;;;;;;259.48;148.38;;;;;;;-0.58;76.73;95524.80;1700635;83;21122;-80
2021/12/28 11:01:27;;;;;;;247.55;144.72;;;;;;;-0.54;77.15;95529.97;1699131;83;21098;-80
2021/12/28 11:03:58;;;;;;;225.95;134.43;;;;;;;-0.48;77.17;95526.89;1696681;83;21030;-80
2021/12/28 11:06:28;;;;;;;175.27;108.25;;;;;;;-0.41;77.11;95516.47;1695232;84;21126;-80
2021/12/28 11:09:07;;;;;;;199.95;114.52;;;;;;;-0.35;76.87;95520.22;1709680;83;21525;-80
2021/12/28 11:11:32;;;;;;;210.20;124.67;;;;;;;-0.37;76.32;95508.87;1697847;83;21023;-80
2021/12/28 11:14:01;;;;;;;200.65;122.65;;;;;;;-0.37;76.88;95508.87;1698800;83;21118;-80
2021/12/28 11:16:29;;;;;;;196.80;113.35;;;;;;;-0.33;76.78;95511.50;1704020;83;21135;-80